sensor_id;sensor_type;location;lat;lon;timestamp;pressure;altitude;pressure_sealevel;temperature;humidity
15670;BME280;18524;45.190;5.732;2023-06-22T00:04:40;98918.38;;;26.25;92.13
15670;BME280;18524;45.190;5.732;2023-06-22T00:09:31;98913.78;;;26.14;92.65
15670;BME280;18524;45.190;5.732;2023-06-22T00:14:21;98914.28;;;25.93;93.20
15670;BME280;18524;45.190;5.732;2023-06-22T00:19:12;98917.94;;;25.68;95.53
15670;BME280;18524;45.190;5.732;2023-06-22T00:24:02;98913.00;;;25.65;95.21
15670;BME280;18524;45.190;5.732;2023-06-22T00:28:53;98903.47;;;25.51;95.78
15670;BME280;18524;45.190;5.732;2023-06-22T00:33:43;98906.28;;;25.56;95.16
15670;BME280;18524;45.190;5.732;2023-06-22T00:38:34;98881.38;;;25.49;95.14
15670;BME280;18524;45.190;5.732;2023-06-22T00:43:24;98897.56;;;25.24;97.22
15670;BME280;18524;45.190;5.732;2023-06-22T00:48:15;98894.63;;;25.32;97.16
15670;BME280;18524;45.190;5.732;2023-06-22T00:53:07;98895.41;;;24.96;100.00
15670;BME280;18524;45.190;5.732;2023-06-22T00:58:01;98892.50;;;24.98;99.41
15670;BME280;18524;45.190;5.732;2023-06-22T01:02:52;98881.88;;;24.84;100.00
15670;BME280;18524;45.190;5.732;2023-06-22T01:08:04;98871.22;;;24.78;100.00
15670;BME280;18524;45.190;5.732;2023-06-22T01:13:01;98859.81;;;24.64;100.00
15670;BME280;18524;45.190;5.732;2023-06-22T01:17:53;98859.06;;;24.75;100.00
15670;BME280;18524;45.190;5.732;2023-06-22T01:33:16;98848.25;;;24.63;100.00
15670;BME280;18524;45.190;5.732;2023-06-22T01:38:08;98858.03;;;24.76;99.85
15670;BME280;18524;45.190;5.732;2023-06-22T01:43:00;98856.97;;;24.77;99.52
15670;BME280;18524;45.190;5.732;2023-06-22T01:47:51;98850.78;;;24.77;98.70
15670;BME280;18524;45.190;5.732;2023-06-22T01:52:42;98848.41;;;24.87;97.49
15670;BME280;18524;45.190;5.732;2023-06-22T01:57:32;98863.00;;;24.73;98.21
15670;BME280;18524;45.190;5.732;2023-06-22T02:02:22;98864.22;;;24.77;98.47
15670;BME280;18524;45.190;5.732;2023-06-22T02:07:21;98871.72;;;24.68;98.36
15670;BME280;18524;45.190;5.732;2023-06-22T02:12:17;98870.00;;;24.74;97.92
15670;BME280;18524;45.190;5.732;2023-06-22T02:17:09;98862.03;;;24.67;98.49
15670;BME280;18524;45.190;5.732;2023-06-22T02:21:59;98862.59;;;24.51;100.00
15670;BME280;18524;45.190;5.732;2023-06-22T02:26:50;98864.13;;;24.40;100.00
15670;BME280;18524;45.190;5.732;2023-06-22T02:31:40;98860.09;;;24.31;100.00
15670;BME280;18524;45.190;5.732;2023-06-22T02:36:31;98855.19;;;24.21;100.00
15670;BME280;18524;45.190;5.732;2023-06-22T02:41:23;98855.34;;;24.33;100.00
15670;BME280;18524;45.190;5.732;2023-06-22T02:46:14;98858.69;;;24.22;100.00
15670;BME280;18524;45.190;5.732;2023-06-22T02:51:04;98868.81;;;24.20;100.00
15670;BME280;18524;45.190;5.732;2023-06-22T02:55:55;98862.19;;;24.22;100.00
15670;BME280;18524;45.190;5.732;2023-06-22T03:00:46;98845.69;;;24.25;100.00
15670;BME280;18524;45.190;5.732;2023-06-22T03:05:36;98875.78;;;24.27;100.00
15670;BME280;18524;45.190;5.732;2023-06-22T03:10:26;98877.22;;;24.30;100.00
15670;BME280;18524;45.190;5.732;2023-06-22T03:15:17;98874.53;;;24.30;100.00
15670;BME280;18524;45.190;5.732;2023-06-22T03:20:09;98881.69;;;24.36;100.00
15670;BME280;18524;45.190;5.732;2023-06-22T03:25:01;98868.06;;;24.38;100.00
15670;BME280;18524;45.190;5.732;2023-06-22T03:29:53;98873.81;;;24.41;99.46
15670;BME280;18524;45.190;5.732;2023-06-22T03:34:43;98891.31;;;24.44;99.22
15670;BME280;18524;45.190;5.732;2023-06-22T03:39:37;98915.84;;;24.47;99.05
15670;BME280;18524;45.190;5.732;2023-06-22T03:44:27;98971.19;;;24.67;95.52
15670;BME280;18524;45.190;5.732;2023-06-22T03:49:17;99009.72;;;24.72;94.55
15670;BME280;18524;45.190;5.732;2023-06-22T03:54:08;99021.66;;;24.76;95.19
15670;BME280;18524;45.190;5.732;2023-06-22T03:58:58;99033.81;;;24.79;96.23
15670;BME280;18524;45.190;5.732;2023-06-22T04:03:48;99063.09;;;24.80;98.05
15670;BME280;18524;45.190;5.732;2023-06-22T04:08:39;99097.16;;;24.80;96.93
15670;BME280;18524;45.190;5.732;2023-06-22T04:13:31;99133.22;;;24.84;95.64
15670;BME280;18524;45.190;5.732;2023-06-22T04:18:21;99138.69;;;24.71;95.74
15670;BME280;18524;45.190;5.732;2023-06-22T04:23:12;99149.50;;;24.57;96.44
15670;BME280;18524;45.190;5.732;2023-06-22T04:28:03;99178.84;;;24.39;100.00
15670;BME280;18524;45.190;5.732;2023-06-22T04:32:54;99192.28;;;24.33;100.00
15670;BME280;18524;45.190;5.732;2023-06-22T04:37:48;99175.72;;;24.49;100.00
15670;BME280;18524;45.190;5.732;2023-06-22T04:42:39;99179.88;;;24.38;100.00
15670;BME280;18524;45.190;5.732;2023-06-22T04:47:30;99166.50;;;24.25;100.00
15670;BME280;18524;45.190;5.732;2023-06-22T04:52:20;99077.03;;;24.19;100.00
15670;BME280;18524;45.190;5.732;2023-06-22T04:57:11;99058.19;;;23.88;100.00
15670;BME280;18524;45.190;5.732;2023-06-22T05:02:02;99068.72;;;23.76;100.00
15670;BME280;18524;45.190;5.732;2023-06-22T05:06:54;99069.59;;;23.63;100.00
15670;BME280;18524;45.190;5.732;2023-06-22T05:11:45;99045.28;;;23.65;100.00
15670;BME280;18524;45.190;5.732;2023-06-22T05:16:36;99049.59;;;23.53;100.00
15670;BME280;18524;45.190;5.732;2023-06-22T05:21:27;99062.78;;;23.48;100.00
15670;BME280;18524;45.190;5.732;2023-06-22T05:26:18;99061.97;;;23.54;100.00
15670;BME280;18524;45.190;5.732;2023-06-22T05:31:09;99052.44;;;23.78;100.00
15670;BME280;18524;45.190;5.732;2023-06-22T05:35:59;99061.50;;;23.83;100.00
15670;BME280;18524;45.190;5.732;2023-06-22T05:40:50;99066.47;;;23.73;100.00
15670;BME280;18524;45.190;5.732;2023-06-22T05:45:40;99078.19;;;23.85;100.00
15670;BME280;18524;45.190;5.732;2023-06-22T05:50:31;99080.78;;;24.05;100.00
15670;BME280;18524;45.190;5.732;2023-06-22T05:55:21;99086.72;;;24.14;100.00
15670;BME280;18524;45.190;5.732;2023-06-22T06:00:12;99062.44;;;24.09;100.00
15670;BME280;18524;45.190;5.732;2023-06-22T06:05:03;99043.06;;;24.07;100.00
15670;BME280;18524;45.190;5.732;2023-06-22T06:09:54;99066.19;;;23.94;100.00
15670;BME280;18524;45.190;5.732;2023-06-22T06:14:44;99042.66;;;24.03;100.00
15670;BME280;18524;45.190;5.732;2023-06-22T06:19:35;99015.00;;;24.09;100.00
15670;BME280;18524;45.190;5.732;2023-06-22T06:24:25;99022.53;;;24.39;100.00
15670;BME280;18524;45.190;5.732;2023-06-22T06:29:16;99013.72;;;24.63;100.00
15670;BME280;18524;45.190;5.732;2023-06-22T06:34:06;99011.34;;;24.73;100.00
15670;BME280;18524;45.190;5.732;2023-06-22T06:38:57;99014.81;;;24.80;100.00
15670;BME280;18524;45.190;5.732;2023-06-22T06:43:47;99011.81;;;24.95;100.00
15670;BME280;18524;45.190;5.732;2023-06-22T06:48:37;99045.69;;;24.89;100.00
15670;BME280;18524;45.190;5.732;2023-06-22T06:53:28;99063.59;;;25.02;100.00
15670;BME280;18524;45.190;5.732;2023-06-22T06:58:18;99050.44;;;24.94;100.00
15670;BME280;18524;45.190;5.732;2023-06-22T07:03:09;99034.94;;;24.96;100.00
15670;BME280;18524;45.190;5.732;2023-06-22T07:07:59;99000.72;;;24.85;100.00
15670;BME280;18524;45.190;5.732;2023-06-22T07:12:50;99001.19;;;24.82;100.00
15670;BME280;18524;45.190;5.732;2023-06-22T07:17:40;99040.59;;;24.81;100.00
15670;BME280;18524;45.190;5.732;2023-06-22T07:22:31;99023.81;;;24.92;98.89
15670;BME280;18524;45.190;5.732;2023-06-22T07:27:21;99023.78;;;24.99;100.00
15670;BME280;18524;45.190;5.732;2023-06-22T07:32:11;99048.19;;;25.16;100.00
15670;BME280;18524;45.190;5.732;2023-06-22T07:37:02;99088.84;;;25.19;100.00
15670;BME280;18524;45.190;5.732;2023-06-22T07:41:53;98995.38;;;25.35;92.95
15670;BME280;18524;45.190;5.732;2023-06-22T07:46:43;99022.06;;;25.30;91.08
15670;BME280;18524;45.190;5.732;2023-06-22T07:51:34;99045.56;;;25.34;92.37
15670;BME280;18524;45.190;5.732;2023-06-22T07:56:24;99081.16;;;25.48;81.31
15670;BME280;18524;45.190;5.732;2023-06-22T08:01:15;99020.28;;;25.60;84.87
15670;BME280;18524;45.190;5.732;2023-06-22T08:06:07;99036.78;;;25.64;81.16
15670;BME280;18524;45.190;5.732;2023-06-22T08:10:59;99054.88;;;25.75;80.20
15670;BME280;18524;45.190;5.732;2023-06-22T08:15:49;99040.78;;;25.79;84.30
15670;BME280;18524;45.190;5.732;2023-06-22T08:20:40;99035.19;;;25.81;80.34
15670;BME280;18524;45.190;5.732;2023-06-22T08:25:30;99067.34;;;25.69;80.89
15670;BME280;18524;45.190;5.732;2023-06-22T08:30:20;99073.53;;;25.70;86.10
15670;BME280;18524;45.190;5.732;2023-06-22T08:35:11;99076.31;;;25.81;86.24
15670;BME280;18524;45.190;5.732;2023-06-22T08:40:04;99062.56;;;26.08;85.26
15670;BME280;18524;45.190;5.732;2023-06-22T08:44:59;99053.88;;;26.24;83.88
15670;BME280;18524;45.190;5.732;2023-06-22T08:49:50;99076.19;;;26.25;81.86
15670;BME280;18524;45.190;5.732;2023-06-22T08:54:40;99061.13;;;26.24;80.51
15670;BME280;18524;45.190;5.732;2023-06-22T08:59:31;99077.59;;;26.27;84.28
15670;BME280;18524;45.190;5.732;2023-06-22T09:04:21;99088.53;;;26.14;81.88
15670;BME280;18524;45.190;5.732;2023-06-22T09:09:16;99082.66;;;26.05;86.52
15670;BME280;18524;45.190;5.732;2023-06-22T09:14:06;99090.19;;;26.15;87.53
15670;BME280;18524;45.190;5.732;2023-06-22T09:18:57;99092.41;;;26.36;87.02
15670;BME280;18524;45.190;5.732;2023-06-22T09:23:47;99082.66;;;26.84;85.29
15670;BME280;18524;45.190;5.732;2023-06-22T09:28:41;99077.50;;;27.24;83.85
15670;BME280;18524;45.190;5.732;2023-06-22T09:33:31;99085.69;;;27.29;78.94
15670;BME280;18524;45.190;5.732;2023-06-22T09:38:22;99091.91;;;27.18;72.23
15670;BME280;18524;45.190;5.732;2023-06-22T09:43:12;99087.88;;;27.08;73.62
15670;BME280;18524;45.190;5.732;2023-06-22T09:48:02;99066.25;;;27.50;69.43
15670;BME280;18524;45.190;5.732;2023-06-22T09:52:53;99106.06;;;28.07;69.25
15670;BME280;18524;45.190;5.732;2023-06-22T09:57:45;99120.44;;;28.36;69.91
15670;BME280;18524;45.190;5.732;2023-06-22T10:02:35;99110.84;;;28.16;70.33
15670;BME280;18524;45.190;5.732;2023-06-22T10:07:25;99097.66;;;27.91;64.10
15670;BME280;18524;45.190;5.732;2023-06-22T10:12:16;99053.25;;;27.70;63.20
15670;BME280;18524;45.190;5.732;2023-06-22T10:17:06;99096.28;;;27.65;65.14
15670;BME280;18524;45.190;5.732;2023-06-22T10:21:57;99077.38;;;27.54;65.26
15670;BME280;18524;45.190;5.732;2023-06-22T10:26:48;99075.50;;;27.31;67.85
15670;BME280;18524;45.190;5.732;2023-06-22T10:31:38;99061.91;;;27.37;69.49
15670;BME280;18524;45.190;5.732;2023-06-22T10:36:28;99033.09;;;27.38;74.39
15670;BME280;18524;45.190;5.732;2023-06-22T10:41:19;99045.75;;;27.14;80.80
15670;BME280;18524;45.190;5.732;2023-06-22T10:46:10;99064.03;;;27.24;80.04
15670;BME280;18524;45.190;5.732;2023-06-22T10:51:00;98986.84;;;27.29;70.35
15670;BME280;18524;45.190;5.732;2023-06-22T10:55:50;99022.53;;;27.48;67.67
15670;BME280;18524;45.190;5.732;2023-06-22T11:00:41;99007.03;;;28.30;67.86
15670;BME280;18524;45.190;5.732;2023-06-22T11:05:31;98988.00;;;29.54;63.67
15670;BME280;18524;45.190;5.732;2023-06-22T11:10:22;98967.91;;;30.43;58.19
15670;BME280;18524;45.190;5.732;2023-06-22T11:15:12;98940.56;;;30.44;56.93
15670;BME280;18524;45.190;5.732;2023-06-22T11:20:03;98951.06;;;30.36;55.78
15670;BME280;18524;45.190;5.732;2023-06-22T11:25:00;98957.50;;;30.30;54.92
15670;BME280;18524;45.190;5.732;2023-06-22T11:29:51;98958.66;;;30.39;56.92
15670;BME280;18524;45.190;5.732;2023-06-22T11:34:43;98972.50;;;30.69;56.01
15670;BME280;18524;45.190;5.732;2023-06-22T11:39:33;98979.06;;;30.78;55.65
15670;BME280;18524;45.190;5.732;2023-06-22T11:44:23;98950.25;;;30.99;53.82
15670;BME280;18524;45.190;5.732;2023-06-22T11:49:14;98958.63;;;31.40;51.19
15670;BME280;18524;45.190;5.732;2023-06-22T11:54:04;98953.69;;;31.27;49.33
15670;BME280;18524;45.190;5.732;2023-06-22T11:58:55;98942.03;;;31.26;48.27
15670;BME280;18524;45.190;5.732;2023-06-22T12:03:45;98952.94;;;31.41;46.82
15670;BME280;18524;45.190;5.732;2023-06-22T12:08:36;98950.81;;;32.31;45.82
15670;BME280;18524;45.190;5.732;2023-06-22T12:13:26;98957.25;;;33.52;42.61
15670;BME280;18524;45.190;5.732;2023-06-22T12:18:16;98954.78;;;33.56;39.51
15670;BME280;18524;45.190;5.732;2023-06-22T12:23:07;98962.00;;;33.81;39.22
15670;BME280;18524;45.190;5.732;2023-06-22T12:27:57;98950.00;;;33.92;40.22
15670;BME280;18524;45.190;5.732;2023-06-22T12:32:47;98966.72;;;33.60;39.87
15670;BME280;18524;45.190;5.732;2023-06-22T12:37:38;98956.00;;;32.89;42.87
15670;BME280;18524;45.190;5.732;2023-06-22T12:42:28;98953.53;;;32.62;43.66
15670;BME280;18524;45.190;5.732;2023-06-22T12:47:18;98947.31;;;32.36;42.63
15670;BME280;18524;45.190;5.732;2023-06-22T12:52:10;98929.59;;;32.08;42.92
15670;BME280;18524;45.190;5.732;2023-06-22T12:57:01;98919.84;;;32.12;43.16
15670;BME280;18524;45.190;5.732;2023-06-22T13:01:52;98906.84;;;32.50;42.36
15670;BME280;18524;45.190;5.732;2023-06-22T13:06:42;98910.66;;;32.44;43.48
15670;BME280;18524;45.190;5.732;2023-06-22T13:11:33;98912.78;;;32.11;44.21
15670;BME280;18524;45.190;5.732;2023-06-22T13:16:23;98889.13;;;31.96;45.69
15670;BME280;18524;45.190;5.732;2023-06-22T13:21:14;98886.13;;;31.83;45.45
15670;BME280;18524;45.190;5.732;2023-06-22T13:26:04;98908.09;;;31.81;46.36
15670;BME280;18524;45.190;5.732;2023-06-22T13:30:55;98951.38;;;31.56;47.33
15670;BME280;18524;45.190;5.732;2023-06-22T13:35:45;98982.00;;;31.09;49.17
15670;BME280;18524;45.190;5.732;2023-06-22T13:40:36;99018.97;;;30.34;51.67
15670;BME280;18524;45.190;5.732;2023-06-22T13:45:28;99088.72;;;30.05;53.24
15670;BME280;18524;45.190;5.732;2023-06-22T13:50:18;99100.03;;;29.64;53.88
15670;BME280;18524;45.190;5.732;2023-06-22T13:55:09;99248.25;;;29.10;48.40
15670;BME280;18524;45.190;5.732;2023-06-22T13:59:59;99239.00;;;27.42;49.50
15670;BME280;18524;45.190;5.732;2023-06-22T14:04:50;99383.34;;;26.27;70.26
15670;BME280;18524;45.190;5.732;2023-06-22T14:09:40;99434.56;;;24.98;94.33
15670;BME280;18524;45.190;5.732;2023-06-22T14:14:32;99434.81;;;23.69;100.00
15670;BME280;18524;45.190;5.732;2023-06-22T14:19:22;99376.28;;;23.12;100.00
15670;BME280;18524;45.190;5.732;2023-06-22T14:24:13;99435.50;;;22.74;100.00
15670;BME280;18524;45.190;5.732;2023-06-22T14:29:03;99509.69;;;22.44;100.00
15670;BME280;18524;45.190;5.732;2023-06-22T14:33:54;99511.66;;;21.99;100.00
15670;BME280;18524;45.190;5.732;2023-06-22T14:38:44;99524.38;;;21.82;100.00
15670;BME280;18524;45.190;5.732;2023-06-22T14:43:36;99555.50;;;21.46;100.00
15670;BME280;18524;45.190;5.732;2023-06-22T14:48:26;99544.19;;;21.44;100.00
15670;BME280;18524;45.190;5.732;2023-06-22T14:53:17;99470.81;;;21.54;100.00
15670;BME280;18524;45.190;5.732;2023-06-22T14:58:07;99481.09;;;21.13;100.00
15670;BME280;18524;45.190;5.732;2023-06-22T15:02:58;99538.28;;;20.58;100.00
15670;BME280;18524;45.190;5.732;2023-06-22T15:07:49;99601.81;;;20.47;100.00
15670;BME280;18524;45.190;5.732;2023-06-22T15:12:40;99530.09;;;20.60;100.00
15670;BME280;18524;45.190;5.732;2023-06-22T15:17:30;99484.78;;;20.60;100.00
15670;BME280;18524;45.190;5.732;2023-06-22T15:22:21;99518.88;;;20.42;100.00
15670;BME280;18524;45.190;5.732;2023-06-22T15:27:11;99505.25;;;20.45;100.00
15670;BME280;18524;45.190;5.732;2023-06-22T15:32:03;99519.63;;;20.58;100.00
15670;BME280;18524;45.190;5.732;2023-06-22T15:36:53;99588.06;;;20.58;100.00
15670;BME280;18524;45.190;5.732;2023-06-22T15:41:44;99530.56;;;20.41;100.00
15670;BME280;18524;45.190;5.732;2023-06-22T15:46:34;99507.47;;;20.56;100.00
15670;BME280;18524;45.190;5.732;2023-06-22T15:51:24;99525.06;;;20.34;100.00
15670;BME280;18524;45.190;5.732;2023-06-22T15:56:15;99570.91;;;20.29;100.00
15670;BME280;18524;45.190;5.732;2023-06-22T16:01:07;99517.97;;;20.26;100.00
15670;BME280;18524;45.190;5.732;2023-06-22T16:05:59;99502.81;;;20.27;100.00
15670;BME280;18524;45.190;5.732;2023-06-22T16:10:49;99505.09;;;20.61;100.00
15670;BME280;18524;45.190;5.732;2023-06-22T16:15:39;99493.38;;;21.22;100.00
15670;BME280;18524;45.190;5.732;2023-06-22T16:20:30;99486.84;;;21.54;100.00
15670;BME280;18524;45.190;5.732;2023-06-22T16:25:20;99479.28;;;21.73;100.00
15670;BME280;18524;45.190;5.732;2023-06-22T16:30:11;99468.34;;;21.68;100.00
15670;BME280;18524;45.190;5.732;2023-06-22T16:35:02;99480.78;;;21.61;100.00
15670;BME280;18524;45.190;5.732;2023-06-22T16:39:52;99478.56;;;21.20;100.00
15670;BME280;18524;45.190;5.732;2023-06-22T16:44:43;99487.38;;;21.20;100.00
15670;BME280;18524;45.190;5.732;2023-06-22T16:49:33;99504.47;;;20.97;100.00
15670;BME280;18524;45.190;5.732;2023-06-22T16:54:29;99490.03;;;21.06;100.00
15670;BME280;18524;45.190;5.732;2023-06-22T16:59:20;99480.81;;;20.94;100.00
15670;BME280;18524;45.190;5.732;2023-06-22T17:04:11;99484.41;;;21.01;100.00
15670;BME280;18524;45.190;5.732;2023-06-22T17:09:04;99492.25;;;20.79;100.00
15670;BME280;18524;45.190;5.732;2023-06-22T17:13:56;99492.34;;;20.71;100.00
15670;BME280;18524;45.190;5.732;2023-06-22T17:18:47;99503.69;;;20.50;100.00
15670;BME280;18524;45.190;5.732;2023-06-22T17:23:38;99500.34;;;20.71;100.00
15670;BME280;18524;45.190;5.732;2023-06-22T17:28:49;99490.78;;;20.62;100.00
15670;BME280;18524;45.190;5.732;2023-06-22T17:33:39;99495.81;;;20.57;100.00
15670;BME280;18524;45.190;5.732;2023-06-22T17:38:30;99495.53;;;20.52;100.00
15670;BME280;18524;45.190;5.732;2023-06-22T17:43:20;99500.59;;;20.62;100.00
15670;BME280;18524;45.190;5.732;2023-06-22T17:48:11;99488.25;;;20.83;100.00
15670;BME280;18524;45.190;5.732;2023-06-22T17:53:02;99484.97;;;20.96;100.00
15670;BME280;18524;45.190;5.732;2023-06-22T17:57:57;99480.38;;;21.05;100.00
15670;BME280;18524;45.190;5.732;2023-06-22T18:02:49;99491.22;;;21.18;100.00
15670;BME280;18524;45.190;5.732;2023-06-22T18:07:40;99493.16;;;20.95;100.00
15670;BME280;18524;45.190;5.732;2023-06-22T18:12:31;99503.63;;;21.11;100.00
15670;BME280;18524;45.190;5.732;2023-06-22T18:17:22;99500.06;;;21.18;100.00
15670;BME280;18524;45.190;5.732;2023-06-22T18:22:14;99507.31;;;20.95;100.00
15670;BME280;18524;45.190;5.732;2023-06-22T18:27:04;99503.75;;;20.80;100.00
15670;BME280;18524;45.190;5.732;2023-06-22T18:31:55;99502.63;;;20.59;100.00
15670;BME280;18524;45.190;5.732;2023-06-22T18:36:49;99519.88;;;20.49;100.00
15670;BME280;18524;45.190;5.732;2023-06-22T18:41:42;99519.91;;;20.64;100.00
15670;BME280;18524;45.190;5.732;2023-06-22T18:46:36;99523.44;;;20.79;100.00
15670;BME280;18524;45.190;5.732;2023-06-22T18:51:27;99528.06;;;20.62;100.00
15670;BME280;18524;45.190;5.732;2023-06-22T18:56:21;99530.63;;;20.55;100.00
15670;BME280;18524;45.190;5.732;2023-06-22T19:01:32;99539.31;;;20.72;100.00
15670;BME280;18524;45.190;5.732;2023-06-22T19:11:40;99543.78;;;20.26;100.00
15670;BME280;18524;45.190;5.732;2023-06-22T19:16:31;99552.38;;;20.36;100.00
15670;BME280;18524;45.190;5.732;2023-06-22T19:21:22;99557.75;;;20.28;100.00
15670;BME280;18524;45.190;5.732;2023-06-22T19:26:14;99563.91;;;20.28;100.00
15670;BME280;18524;45.190;5.732;2023-06-22T19:31:06;99584.84;;;20.40;100.00
15670;BME280;18524;45.190;5.732;2023-06-22T19:35:58;99591.16;;;20.39;100.00
15670;BME280;18524;45.190;5.732;2023-06-22T19:40:49;99576.34;;;20.36;100.00
15670;BME280;18524;45.190;5.732;2023-06-22T19:45:40;99582.50;;;20.45;100.00
15670;BME280;18524;45.190;5.732;2023-06-22T19:50:34;99592.00;;;20.47;100.00
15670;BME280;18524;45.190;5.732;2023-06-22T19:55:29;99606.00;;;20.41;100.00
15670;BME280;18524;45.190;5.732;2023-06-22T20:00:21;99614.44;;;20.53;100.00
15670;BME280;18524;45.190;5.732;2023-06-22T20:05:12;99621.72;;;20.59;100.00
15670;BME280;18524;45.190;5.732;2023-06-22T20:10:29;99623.16;;;20.70;100.00
15670;BME280;18524;45.190;5.732;2023-06-22T20:15:27;99627.59;;;20.77;100.00
15670;BME280;18524;45.190;5.732;2023-06-22T20:20:21;99620.84;;;20.89;100.00
15670;BME280;18524;45.190;5.732;2023-06-22T20:25:12;99633.91;;;20.84;100.00
15670;BME280;18524;45.190;5.732;2023-06-22T20:30:13;99638.56;;;20.82;100.00
15670;BME280;18524;45.190;5.732;2023-06-22T20:35:04;99638.81;;;20.96;100.00
15670;BME280;18524;45.190;5.732;2023-06-22T20:39:55;99642.28;;;20.96;100.00
15670;BME280;18524;45.190;5.732;2023-06-22T20:44:45;99643.41;;;21.02;100.00
15670;BME280;18524;45.190;5.732;2023-06-22T20:49:39;99648.09;;;21.00;100.00
15670;BME280;18524;45.190;5.732;2023-06-22T20:54:30;99657.94;;;20.99;100.00
15670;BME280;18524;45.190;5.732;2023-06-22T20:59:23;99662.75;;;21.04;100.00
15670;BME280;18524;45.190;5.732;2023-06-22T21:04:14;99660.78;;;20.98;100.00
15670;BME280;18524;45.190;5.732;2023-06-22T21:09:04;99661.91;;;21.03;100.00
15670;BME280;18524;45.190;5.732;2023-06-22T21:13:54;99654.75;;;21.04;100.00
15670;BME280;18524;45.190;5.732;2023-06-22T21:18:45;99663.94;;;21.01;100.00
15670;BME280;18524;45.190;5.732;2023-06-22T21:23:35;99667.50;;;20.94;100.00
15670;BME280;18524;45.190;5.732;2023-06-22T21:28:25;99670.72;;;20.81;100.00
15670;BME280;18524;45.190;5.732;2023-06-22T21:33:16;99680.25;;;20.75;100.00
15670;BME280;18524;45.190;5.732;2023-06-22T21:38:06;99679.91;;;20.78;100.00
15670;BME280;18524;45.190;5.732;2023-06-22T21:42:57;99691.31;;;20.64;100.00
15670;BME280;18524;45.190;5.732;2023-06-22T21:47:48;99684.50;;;20.62;100.00
15670;BME280;18524;45.190;5.732;2023-06-22T21:52:38;99689.72;;;20.55;100.00
15670;BME280;18524;45.190;5.732;2023-06-22T21:57:28;99697.88;;;20.53;100.00
15670;BME280;18524;45.190;5.732;2023-06-22T22:02:19;99688.69;;;20.56;100.00
15670;BME280;18524;45.190;5.732;2023-06-22T22:07:09;99704.34;;;20.59;100.00
15670;BME280;18524;45.190;5.732;2023-06-22T22:12:00;99690.06;;;20.44;100.00
15670;BME280;18524;45.190;5.732;2023-06-22T22:16:50;99684.25;;;20.48;100.00
15670;BME280;18524;45.190;5.732;2023-06-22T22:21:41;99690.75;;;20.46;100.00
15670;BME280;18524;45.190;5.732;2023-06-22T22:26:34;99690.06;;;20.36;100.00
15670;BME280;18524;45.190;5.732;2023-06-22T22:31:25;99692.72;;;20.44;100.00
15670;BME280;18524;45.190;5.732;2023-06-22T22:36:15;99696.75;;;20.40;100.00
15670;BME280;18524;45.190;5.732;2023-06-22T22:41:06;99680.78;;;20.32;100.00
15670;BME280;18524;45.190;5.732;2023-06-22T22:45:56;99681.09;;;20.37;100.00
15670;BME280;18524;45.190;5.732;2023-06-22T22:50:47;99677.09;;;20.33;100.00
15670;BME280;18524;45.190;5.732;2023-06-22T22:55:37;99677.16;;;20.24;100.00
15670;BME280;18524;45.190;5.732;2023-06-22T23:00:28;99670.47;;;20.28;100.00
15670;BME280;18524;45.190;5.732;2023-06-22T23:05:18;99676.91;;;20.42;100.00
15670;BME280;18524;45.190;5.732;2023-06-22T23:10:10;99676.91;;;20.42;100.00
15670;BME280;18524;45.190;5.732;2023-06-22T23:15:02;99682.97;;;20.28;100.00
15670;BME280;18524;45.190;5.732;2023-06-22T23:19:53;99675.28;;;20.33;100.00
15670;BME280;18524;45.190;5.732;2023-06-22T23:24:45;99683.44;;;20.32;100.00
15670;BME280;18524;45.190;5.732;2023-06-22T23:29:35;99682.81;;;20.21;100.00
15670;BME280;18524;45.190;5.732;2023-06-22T23:34:26;99681.94;;;20.29;100.00
15670;BME280;18524;45.190;5.732;2023-06-22T23:39:16;99695.16;;;20.14;100.00
15670;BME280;18524;45.190;5.732;2023-06-22T23:44:06;99689.78;;;20.30;100.00
15670;BME280;18524;45.190;5.732;2023-06-22T23:48:57;99700.78;;;20.27;100.00
15670;BME280;18524;45.190;5.732;2023-06-22T23:53:47;99696.28;;;20.28;100.00
15670;BME280;18524;45.190;5.732;2023-06-22T23:58:37;99702.16;;;20.15;100.00
